St. Paul, Alberta

Past 24 Hour Conditions

Date / Time
(MDT)
Conditions Temp
(°F)
Humidity
(%)
Dew Point
(°F)
Wind
(mph)
Pressure
(inches)
Visibility
(miles)
29 May 2015
1:00 N/A 34   82 29 ESE 2 N/A N/A
00:00 N/A 37 78 30 calm N/A N/A
28 May 2015
23:00 N/A 37 72 28 calm N/A N/A
22:00 N/A 44 50 26 NE 2 N/A N/A
21:00 N/A 48 40 25 NE 4 N/A N/A
20:00 N/A 50 38 26 NE 7 N/A N/A
19:00 N/A 52 36 26 NNE 10 N/A N/A
18:00 N/A 53   33 24 NE 9 N/A N/A
17:00 N/A 53   38 28 N 14 N/A N/A
16:00 N/A 52 37 27 NNE 13 N/A N/A
15:00 N/A 52 39 27 N 13 N/A N/A
14:00 N/A 50 44 29 NNW 13 N/A N/A
13:00 N/A 48 48 29 N 13 N/A N/A
12:00 N/A 46 52 29 N 17 N/A N/A
11:00 N/A 44 61 32 NNE 14 N/A N/A
10:00 N/A 43 68 33 N 17 N/A N/A
9:00 N/A 42 69 32 N 16 N/A N/A
8:00 N/A 41 69 32 N 16 N/A N/A
7:00 N/A 42 74 34 N 17 N/A N/A
6:00 N/A 43 76 36 N 12 N/A N/A
5:00 N/A 44 75 37 N 11 N/A N/A
4:00 N/A 45 75 37 N 17 N/A N/A
3:00 N/A 47 81 41 N 16 N/A N/A
2:00 N/A 49 86 45 N 12 N/A N/A
1:00 N/A 50 84 45 N 14 N/A N/A
N/A Not available
↑ Highest temperature
↓ Lowest temperature

If you require additional historical weather information, please visit Climate Data Online.

What we are doing

Date modified: